Time;durP1;ratioP1;P1;durP2;ratioP2;P2;SDS_P1;SDS_P2;PMS_P1;PMS_P2;Temp;Humidity;BMP_temperature;BMP_pressure;BME280_temperature;BME280_humidity;BME280_pressure;Samples;Min_cycle;Max_cycle;Signal;HPM_P1;HPM_P2
2022/08/23 00:00:09;;;;;;;20.25;5.12;;;;;;;17.44;99.80;94285.76;1672106;84;21113;-50
2022/08/23 00:02:37;;;;;;;9.80;5.47;;;;;;;17.46;99.68;94286.02;1672664;84;21054;-50
2022/08/23 00:05:05;;;;;;;10.58;5.28;;;;;;;17.50;99.48;94284.39;1672481;84;20975;-50
2022/08/23 00:07:33;;;;;;;10.78;5.00;;;;;;;17.52;99.07;94286.03;1675953;85;21240;-48
2022/08/23 00:10:01;;;;;;;7.10;4.90;;;;;;;17.52;98.61;94288.81;1675387;83;21101;-47
2022/08/23 00:12:29;;;;;;;9.80;5.22;;;;;;;17.54;98.68;94283.50;1680570;83;20975;-49
2022/08/23 00:14:57;;;;;;;11.45;5.03;;;;;;;17.57;98.54;94281.88;1677138;84;21220;-48
2022/08/23 00:17:26;;;;;;;9.85;4.72;;;;;;;17.58;98.36;94285.40;1677250;83;21113;-48
2022/08/23 00:19:56;;;;;;;7.30;4.95;;;;;;;17.55;98.12;94282.23;1680051;85;21157;-49
2022/08/23 00:22:23;;;;;;;8.65;4.60;;;;;;;17.53;98.28;94273.02;1679898;85;21554;-49
2022/08/23 00:24:51;;;;;;;6.90;4.80;;;;;;;17.56;98.58;94272.02;1673611;84;20983;-49
2022/08/23 00:27:20;;;;;;;10.00;5.30;;;;;;;17.57;98.89;94289.45;1682029;84;21039;-48
2022/08/23 00:29:52;;;;;;;9.93;5.00;;;;;;;17.63;99.16;94299.97;1647476;84;20979;-48
2022/08/23 00:32:27;;;;;;;7.55;5.15;;;;;;;17.67;98.92;94313.75;1668690;84;21256;-48
2022/08/23 00:34:54;;;;;;;8.83;4.85;;;;;;;17.66;98.67;94361.56;1675955;84;21057;-49
2022/08/23 00:37:23;;;;;;;9.13;5.08;;;;;;;17.60;99.12;94371.89;1671746;84;21069;-49
2022/08/23 00:39:52;;;;;;;11.03;4.90;;;;;;;17.53;99.39;94367.59;1677501;84;21082;-48
2022/08/23 00:48:42;;;;;;;8.45;4.35;;;;;;;17.54;100.00;94371.90;1675829;84;21054;-48
2022/08/23 00:51:19;;;;;;;6.78;3.85;;;;;;;17.65;100.00;94361.44;1675649;84;21103;-47
2022/08/23 00:53:51;;;;;;;10.43;4.80;;;;;;;17.69;100.00;94351.59;1680868;85;21082;-48
2022/08/23 00:56:21;;;;;;;7.40;4.05;;;;;;;17.69;100.00;94356.38;1671619;85;21030;-48
2022/08/23 00:58:49;;;;;;;10.13;3.90;;;;;;;17.67;100.00;94344.35;1681184;85;21220;-48
2022/08/23 01:01:17;;;;;;;7.55;4.37;;;;;;;17.71;100.00;94350.45;1670217;85;21015;-48
2022/08/23 01:03:48;;;;;;;7.85;4.35;;;;;;;17.72;100.00;94352.59;1645504;85;21212;-48
2022/08/23 01:06:30;;;;;;;4.33;3.90;;;;;;;17.74;100.00;94338.93;1677581;84;21124;-48
2022/08/23 01:09:11;;;;;;;;;;;;;;;17.79;100.00;94329.85;1667512;85;20991;-48
2022/08/23 01:11:49;;;;;;;11.80;6.28;;;;;;;17.81;100.00;94324.55;1657312;85;21252;-48
2022/08/23 01:14:28;;;;;;;7.72;4.33;;;;;;;17.83;100.00;94326.19;1663450;85;21154;-49
2022/08/23 01:17:09;;;;;;;17.75;5.10;;;;;;;17.82;100.00;94324.02;1674698;85;21030;-48
2022/08/23 01:19:40;;;;;;;6.97;4.37;;;;;;;17.80;100.00;94310.50;1648516;85;21549;-49
2022/08/23 01:22:46;;;;;;;9.15;4.28;;;;;;;17.75;100.00;94298.09;1669874;85;21034;-48
2022/08/23 01:25:17;;;;;;;6.80;4.25;;;;;;;17.72;100.00;94287.20;1636166;85;21249;-48
2022/08/23 01:27:45;;;;;;;5.90;4.12;;;;;;;17.72;100.00;94274.06;1643374;84;21045;-49
2022/08/23 01:30:18;;;;;;;4.35;3.75;;;;;;;17.73;100.00;94276.20;1666159;85;21466;-48
2022/08/23 01:32:49;;;;;;;;;;;;;;;17.73;100.00;94278.98;1663151;85;20990;-48
2022/08/23 01:35:19;;;;;;;6.65;4.47;;;;;;;17.71;100.00;94286.45;1672121;85;20142;-49
2022/08/23 01:37:47;;;;;;;7.67;4.53;;;;;;;17.70;100.00;94286.95;1679132;84;22243;-47
2022/08/23 01:40:14;;;;;;;9.58;4.55;;;;;;;17.71;100.00;94280.12;1674540;85;21530;-47
2022/08/23 01:42:42;;;;;;;5.80;3.95;;;;;;;17.68;100.00;94284.66;1680257;85;20983;-48
2022/08/23 01:45:13;;;;;;;9.43;4.75;;;;;;;17.70;100.00;94280.77;1647319;85;21538;-48
2022/08/23 01:47:41;;;;;;;7.83;4.25;;;;;;;17.71;100.00;94280.89;1673444;85;21087;-47
2022/08/23 01:50:10;;;;;;;8.43;4.78;;;;;;;17.72;100.00;94277.46;1672492;85;21185;-48
2022/08/23 01:52:38;;;;;;;7.75;4.20;;;;;;;17.74;100.00;94283.28;1659850;85;21219;-48
2022/08/23 01:55:09;;;;;;;6.78;4.20;;;;;;;17.77;100.00;94283.66;1672964;85;21042;-48
2022/08/23 01:57:37;;;;;;;8.05;4.55;;;;;;;17.78;100.00;94286.56;1679487;85;20988;-48
2022/08/23 02:00:08;;;;;;;8.23;4.65;;;;;;;17.80;100.00;94289.63;1663440;84;20977;-47
2022/08/23 02:02:38;;;;;;;8.53;4.75;;;;;;;17.86;100.00;94298.09;1649821;85;21442;-48
2022/08/23 02:05:07;;;;;;;9.30;4.60;;;;;;;17.89;100.00;94306.07;1678791;84;21078;-49
2022/08/23 02:07:35;;;;;;;6.60;4.00;;;;;;;17.88;100.00;94303.16;1657175;85;21077;-48
2022/08/23 02:10:04;;;;;;;11.75;4.25;;;;;;;17.85;100.00;94309.74;1662765;85;21578;-48
2022/08/23 02:12:32;;;;;;;10.00;4.55;;;;;;;17.80;100.00;94293.80;1660449;85;21585;-49
2022/08/23 02:15:01;;;;;;;6.47;4.65;;;;;;;17.80;100.00;94288.98;1653872;85;21259;-48
2022/08/23 02:17:29;;;;;;;9.90;4.55;;;;;;;17.82;100.00;94285.06;1661566;85;20971;-49
2022/08/23 02:20:00;;;;;;;8.25;4.35;;;;;;;17.84;100.00;94282.53;1648537;85;21192;-48
2022/08/23 02:22:28;;;;;;;6.35;3.92;;;;;;;17.88;100.00;94279.50;1635323;85;21037;-49
2022/08/23 02:24:56;;;;;;;11.03;5.03;;;;;;;17.92;100.00;94277.22;1654970;85;21037;-48
2022/08/23 02:27:25;;;;;;;8.15;5.08;;;;;;;17.95;100.00;94266.47;1650269;85;21305;-48
2022/08/23 02:29:53;;;;;;;8.90;4.62;;;;;;;17.96;100.00;94255.45;1658842;84;21054;-48
2022/08/23 02:32:21;;;;;;;9.03;4.83;;;;;;;17.94;100.00;94256.59;1630397;85;21065;-48
2022/08/23 02:34:49;;;;;;;6.37;4.10;;;;;;;17.89;100.00;94261.54;1652023;85;20986;-48
2022/08/23 02:37:19;;;;;;;7.03;4.20;;;;;;;17.84;100.00;94262.30;1641288;85;21084;-48
2022/08/23 02:39:48;;;;;;;7.90;4.47;;;;;;;17.80;100.00;94265.98;1654499;85;21101;-48
2022/08/23 02:42:16;;;;;;;10.15;4.47;;;;;;;17.79;100.00;94267.24;1667169;85;21083;-48
2022/08/23 02:44:45;;;;;;;10.10;4.95;;;;;;;17.79;100.00;94267.24;1647334;84;20987;-48
2022/08/23 02:47:13;;;;;;;10.53;4.28;;;;;;;17.79;100.00;94277.73;1648862;85;21027;-48
2022/08/23 02:49:44;;;;;;;4.58;4.10;;;;;;;17.85;100.00;94277.73;1654577;85;21031;-49
2022/08/23 02:52:12;;;;;;;8.55;4.45;;;;;;;17.88;100.00;94275.33;1631101;86;21269;-49
2022/08/23 02:54:41;;;;;;;7.45;4.28;;;;;;;17.91;100.00;94282.66;1656894;84;21117;-49
2022/08/23 02:57:09;;;;;;;8.00;4.72;;;;;;;17.96;100.00;94275.72;1643869;85;21041;-49
2022/08/23 02:59:38;;;;;;;9.45;4.90;;;;;;;17.96;100.00;94274.94;1669255;85;21034;-47
2022/08/23 03:02:07;;;;;;;7.47;3.95;;;;;;;17.94;100.00;94278.86;1667322;84;21546;-48
2022/08/23 03:04:37;;;;;;;8.20;4.47;;;;;;;17.89;100.00;94271.28;1664463;85;22085;-48
2022/08/23 03:07:05;;;;;;;6.47;4.55;;;;;;;17.88;100.00;94274.71;1657256;85;21018;-47
2022/08/23 03:09:34;;;;;;;5.58;4.25;;;;;;;17.86;100.00;94280.00;1650189;85;21198;-48
2022/08/23 03:12:03;;;;;;;8.48;4.70;;;;;;;17.83;100.00;94281.66;1659920;84;21050;-48
2022/08/23 03:14:34;;;;;;;7.58;4.78;;;;;;;17.78;100.00;94287.34;1666183;85;21023;-47
2022/08/23 03:17:03;;;;;;;6.60;4.15;;;;;;;17.77;100.00;94276.70;1647861;85;21298;-47
2022/08/23 03:19:32;;;;;;;8.35;4.37;;;;;;;17.78;100.00;94278.22;1665691;85;21070;-48
2022/08/23 03:22:01;;;;;;;9.23;4.17;;;;;;;17.81;100.00;94281.41;1663701;84;21072;-48
2022/08/23 03:24:29;;;;;;;5.65;4.10;;;;;;;17.83;100.00;94287.97;1661305;85;21088;-51
2022/08/23 03:26:57;;;;;;;6.25;5.25;;;;;;;17.85;100.00;94300.00;1658956;85;21064;-49
2022/08/23 03:29:26;;;;;;;5.67;4.28;;;;;;;17.86;100.00;94300.13;1659537;85;21276;-49
2022/08/23 03:32:03;;;;;;;6.70;4.33;;;;;;;17.82;100.00;94294.80;1659052;84;21122;-48
2022/08/23 03:34:33;;;;;;;9.18;4.42;;;;;;;17.82;100.00;94301.76;1650427;85;21252;-48
2022/08/23 03:37:01;;;;;;;9.65;4.80;;;;;;;17.85;100.00;94309.74;1659613;84;21089;-49
2022/08/23 03:39:29;;;;;;;8.78;5.03;;;;;;;17.90;100.00;94300.63;1647068;84;21061;-49
2022/08/23 03:41:58;;;;;;;6.50;4.45;;;;;;;17.93;100.00;94305.95;1655456;85;21169;-50
2022/08/23 03:44:28;;;;;;;8.05;4.62;;;;;;;17.97;100.00;94307.11;1659249;85;20982;-48
2022/08/23 03:46:56;;;;;;;8.75;4.65;;;;;;;17.96;100.00;94308.34;1667084;85;21002;-48
2022/08/23 03:49:26;;;;;;;5.53;4.20;;;;;;;17.95;100.00;94312.39;1635996;84;21040;-48
2022/08/23 03:51:57;;;;;;;6.00;4.87;;;;;;;17.95;100.00;94316.57;1662985;84;21010;-48
2022/08/23 03:54:24;;;;;;;5.85;4.72;;;;;;;17.98;100.00;94316.98;1671279;85;21858;-48
2022/08/23 03:56:59;;;;;;;9.00;5.10;;;;;;;18.01;100.00;94318.74;1670823;85;21035;-48
2022/08/23 03:59:28;;;;;;;9.70;4.35;;;;;;;18.02;100.00;94314.70;1679663;85;21435;-48
2022/08/23 04:01:56;;;;;;;5.87;4.20;;;;;;;18.06;100.00;94317.98;1656898;83;21187;-49
2022/08/23 04:04:24;;;;;;;7.70;4.75;;;;;;;18.09;100.00;94326.70;1681883;83;21093;-49
2022/08/23 04:06:56;;;;;;;9.13;5.03;;;;;;;18.10;100.00;94325.44;1681104;84;21159;-50
2022/08/23 04:09:24;;;;;;;11.10;4.58;;;;;;;18.10;100.00;94333.80;1681755;83;20986;-50
2022/08/23 04:11:52;;;;;;;6.83;4.35;;;;;;;18.12;100.00;94327.08;1679593;85;21569;-50
2022/08/23 04:14:20;;;;;;;7.70;4.42;;;;;;;18.18;100.00;94334.83;1676465;84;20980;-49
2022/08/23 04:16:49;;;;;;;9.15;4.28;;;;;;;18.20;100.00;94329.64;1683837;85;21476;-48
2022/08/23 04:19:17;;;;;;;7.53;4.28;;;;;;;18.21;100.00;94340.90;1648410;86;21252;-53
2022/08/23 04:21:49;;;;;;;7.55;4.37;;;;;;;18.17;100.00;94334.05;1647390;85;21598;-48
2022/08/23 04:24:17;;;;;;;5.17;4.05;;;;;;;18.17;100.00;94336.84;1622081;87;21565;-48
2022/08/23 04:26:47;;;;;;;5.53;4.22;;;;;;;18.22;100.00;94335.45;1669294;85;21152;-49
2022/08/23 04:29:16;;;;;;;16.15;5.45;;;;;;;18.23;100.00;94343.94;1681170;85;21062;-48
2022/08/23 04:31:45;;;;;;;9.55;4.53;;;;;;;18.18;100.00;94340.52;1668651;83;21251;-48
2022/08/23 04:34:15;;;;;;;8.68;5.05;;;;;;;18.17;100.00;94344.45;1674216;83;21055;-48
2022/08/23 04:36:43;;;;;;;9.45;5.15;;;;;;;18.10;100.00;94353.28;1671820;84;21574;-48
2022/08/23 04:39:11;;;;;;;6.12;4.87;;;;;;;18.06;100.00;94356.95;1676187;82;21130;-48
2022/08/23 04:44:26;;;;;;;10.32;5.55;;;;;;;18.07;100.00;94361.26;1677597;84;21142;-48
2022/08/23 04:46:55;;;;;;;6.45;4.70;;;;;;;18.06;100.00;94358.34;1656277;84;21082;-49
2022/08/23 04:49:23;;;;;;;6.28;4.50;;;;;;;18.10;100.00;94357.45;1674398;82;21065;-48
2022/08/23 04:51:51;;;;;;;6.70;5.05;;;;;;;18.18;100.00;94355.71;1671885;84;21060;-50
2022/08/23 04:54:19;;;;;;;10.15;4.72;;;;;;;18.21;100.00;94356.83;1674884;82;21079;-50
2022/08/23 04:57:08;;;;;;;9.05;5.12;;;;;;;18.23;100.00;94361.27;1661964;84;21530;-49
2022/08/23 04:59:37;;;;;;;5.15;4.15;;;;;;;18.26;100.00;94356.09;1639095;85;20971;-49
2022/08/23 05:02:06;;;;;;;8.80;4.97;;;;;;;18.35;100.00;94356.64;1674095;84;21078;-49
2022/08/23 05:04:34;;;;;;;6.62;4.55;;;;;;;18.41;100.00;94359.40;1656726;82;21247;-49
2022/08/23 05:07:02;;;;;;;7.28;4.87;;;;;;;18.42;100.00;94361.69;1663678;84;21099;-48
2022/08/23 05:09:32;;;;;;;11.38;6.37;;;;;;;18.46;100.00;94359.41;1660516;83;21153;-49
2022/08/23 05:11:59;;;;;;;6.65;5.90;;;;;;;18.49;100.00;94359.03;1662274;84;21058;-49
2022/08/23 05:14:28;;;;;;;13.10;8.63;;;;;;;18.52;100.00;94356.00;1644535;85;20953;-49
2022/08/23 05:16:57;;;;;;;6.97;5.90;;;;;;;18.54;100.00;94357.64;1665352;84;20987;-48
2022/08/23 05:19:26;;;;;;;8.98;5.65;;;;;;;18.59;100.00;94362.44;1656478;84;21027;-50
2022/08/23 05:21:54;;;;;;;14.35;5.22;;;;;;;18.62;100.00;94362.81;1651250;85;21254;-48
2022/08/23 05:24:23;;;;;;;12.40;5.37;;;;;;;18.65;100.00;94363.19;1623962;86;21062;-49
2022/08/23 05:26:52;;;;;;;9.90;5.42;;;;;;;18.70;100.00;94370.80;1639474;86;21038;-49
2022/08/23 05:29:20;;;;;;;7.22;5.83;;;;;;;18.78;100.00;94377.98;1650486;85;21019;-50
2022/08/23 05:31:49;;;;;;;7.25;5.30;;;;;;;18.89;100.00;94384.95;1607781;86;21197;-50
2022/08/23 05:34:18;;;;;;;8.00;4.50;;;;;;;18.97;100.00;94388.76;1677044;83;21429;-50
2022/08/23 05:36:48;;;;;;;6.62;4.87;;;;;;;19.05;100.00;94380.73;1675450;83;21066;-51
2022/08/23 05:39:16;;;;;;;11.12;7.70;;;;;;;19.12;100.00;94385.80;1682541;84;21089;-53
2022/08/23 05:41:45;;;;;;;13.45;6.20;;;;;;;19.18;100.00;94383.03;1676550;83;21211;-51
2022/08/23 05:44:13;;;;;;;8.93;6.92;;;;;;;19.22;100.00;94385.66;1617580;86;21149;-51
2022/08/23 05:46:44;;;;;;;11.73;6.10;;;;;;;19.30;99.98;94383.87;1651402;84;21279;-50
2022/08/23 05:49:13;;;;;;;7.03;4.20;;;;;;;19.44;99.30;94388.41;1649712;82;20911;-49
2022/08/23 05:51:41;;;;;;;5.85;3.83;;;;;;;19.55;98.80;94384.16;1631353;84;21011;-51
2022/08/23 05:54:09;;;;;;;7.20;4.10;;;;;;;19.68;98.63;94381.57;1666304;84;21069;-51
2022/08/23 05:56:41;;;;;;;5.90;4.17;;;;;;;19.87;97.39;94378.92;1659481;84;22139;-51
2022/08/23 05:59:14;;;;;;;5.33;3.80;;;;;;;20.07;96.79;94386.34;1655690;84;21186;-51
2022/08/23 06:01:42;;;;;;;9.65;4.37;;;;;;;20.29;95.03;94387.59;1650386;84;21094;-53
2022/08/23 06:04:12;;;;;;;6.92;3.60;;;;;;;20.42;91.49;94380.15;1658058;84;22114;-50
2022/08/23 06:06:42;;;;;;;8.08;4.30;;;;;;;20.47;89.65;94379.96;1654256;84;21248;-50
2022/08/23 06:09:13;;;;;;;9.60;4.92;;;;;;;20.50;88.41;94383.11;1662583;83;21536;-50
2022/08/23 06:11:46;;;;;;;9.13;3.83;;;;;;;20.50;88.30;94380.31;1653255;84;21144;-50
2022/08/23 06:14:14;;;;;;;5.95;3.40;;;;;;;20.46;87.36;94383.41;1651609;84;21529;-50
2022/08/23 06:16:46;;;;;;;4.87;4.35;;;;;;;20.43;86.71;94384.45;1653332;85;21085;-49
2022/08/23 06:19:17;;;;;;;12.93;4.20;;;;;;;20.40;86.39;94387.52;1678825;84;21057;-50
2022/08/23 06:22:05;;;;;;;5.90;4.25;;;;;;;20.43;86.53;94383.06;1656688;84;21566;-50
2022/08/23 06:24:35;;;;;;;12.05;5.12;;;;;;;20.45;86.29;94381.13;1639203;85;21124;-50
2022/08/23 06:27:11;;;;;;;5.90;3.83;;;;;;;20.42;86.25;94384.34;1667618;84;21062;-49
2022/08/23 06:29:39;;;;;;;11.55;4.53;;;;;;;20.39;86.25;94381.16;1662954;84;20995;-50
2022/08/23 06:32:25;;;;;;;9.33;5.20;;;;;;;20.41;86.09;94393.97;1660791;84;21026;-49
2022/08/23 06:34:55;;;;;;;12.23;4.17;;;;;;;20.42;86.73;94390.55;1627790;84;21122;-50
2022/08/23 06:37:27;;;;;;;8.78;4.50;;;;;;;20.48;87.40;94387.06;1653256;84;22377;-50
2022/08/23 06:40:04;;;;;;;5.50;3.95;;;;;;;20.55;87.87;94392.11;1631758;83;21034;-50
2022/08/23 06:42:52;;;;;;;11.28;4.42;;;;;;;20.64;87.58;94391.78;1657709;84;21122;-57
2022/08/23 06:45:22;;;;;;;8.95;4.20;;;;;;;20.76;87.14;94397.41;1669243;84;21132;-49
2022/08/23 06:47:50;;;;;;;6.92;4.35;;;;;;;20.90;86.41;94399.09;1671777;83;21062;-52
2022/08/23 06:50:19;;;;;;;12.33;4.28;;;;;;;21.00;85.08;94400.26;1671088;83;21274;-51
2022/08/23 06:53:04;;;;;;;10.58;4.33;;;;;;;21.04;84.28;94402.89;1660674;83;21060;-54
2022/08/23 06:55:43;;;;;;;5.22;4.00;;;;;;;21.05;84.25;94405.03;1665773;83;21202;-55
2022/08/23 06:58:19;;;;;;;9.95;4.33;;;;;;;21.10;84.15;94397.25;1686233;83;21801;-55
2022/08/23 07:01:34;;;;;;;11.83;4.55;;;;;;;21.18;83.85;94410.77;1684443;83;20975;-57
2022/08/23 07:04:08;;;;;;;10.15;4.47;;;;;;;21.27;83.61;94405.58;1676062;83;21154;-55
2022/08/23 07:06:55;;;;;;;11.48;4.20;;;;;;;21.45;84.19;94408.34;1664629;85;21106;-54
2022/08/23 07:09:23;;;;;;;8.43;4.15;;;;;;;21.69;83.62;94410.48;1650479;84;21473;-57
2022/08/23 07:11:53;;;;;;;7.30;4.35;;;;;;;21.88;82.35;94406.31;1668783;84;22467;-54
2022/08/23 07:14:21;;;;;;;15.95;4.75;;;;;;;21.99;81.52;94407.59;1662835;84;21006;-55
2022/08/23 07:16:58;;;;;;;37.20;6.05;;;;;;;22.02;80.89;94410.73;1665338;83;21273;-57
2022/08/23 07:19:30;;;;;;;12.13;4.10;;;;;;;22.00;80.64;94409.11;1654313;84;21035;-55
2022/08/23 07:21:59;;;;;;;10.75;3.90;;;;;;;22.03;80.54;94405.98;1673071;83;21089;-55
2022/08/23 07:24:27;;;;;;;10.25;3.77;;;;;;;21.99;78.50;94402.73;1644117;84;21116;-56
2022/08/23 07:26:55;;;;;;;7.40;3.83;;;;;;;21.96;77.60;94403.02;1649814;85;21073;-54
2022/08/23 07:29:22;;;;;;;8.48;3.72;;;;;;;21.99;78.15;94400.59;1638165;85;21149;-55
2022/08/23 07:31:53;;;;;;;9.90;3.75;;;;;;;22.05;78.05;94406.98;1655977;84;21447;-56
2022/08/23 07:34:21;;;;;;;7.62;3.33;;;;;;;22.09;78.17;94403.22;1644596;85;21046;-56
2022/08/23 07:36:49;;;;;;;5.33;3.80;;;;;;;22.13;76.86;94402.27;1650824;84;21016;-56
2022/08/23 07:39:17;;;;;;;8.95;3.15;;;;;;;22.15;75.43;94402.49;1653093;84;21120;-55
2022/08/23 07:41:46;;;;;;;6.87;4.15;;;;;;;22.18;76.08;94398.66;1644725;85;21150;-57
2022/08/23 07:44:13;;;;;;;8.78;4.28;;;;;;;22.23;76.62;94401.25;1640275;84;21088;-56
2022/08/23 07:46:43;;;;;;;10.45;4.17;;;;;;;22.30;76.52;94399.99;1659648;85;21218;-54
2022/08/23 07:49:10;;;;;;;5.45;3.52;;;;;;;22.41;76.80;94408.28;1636238;85;22052;-56
2022/08/23 07:51:41;;;;;;;8.63;4.20;;;;;;;22.51;77.71;94412.86;1649136;84;20998;-56
2022/08/23 07:54:10;;;;;;;7.67;3.90;;;;;;;22.55;78.08;94409.09;1653806;85;21126;-56
2022/08/23 07:56:55;;;;;;;11.40;3.52;;;;;;;22.64;78.14;94406.66;1677780;83;21069;-55
2022/08/23 07:59:41;;;;;;;7.30;3.35;;;;;;;22.74;78.09;94404.98;1657722;83;21052;-56
2022/08/23 08:02:11;;;;;;;5.53;2.90;;;;;;;22.87;76.64;94402.86;1650019;84;21101;-55
2022/08/23 08:04:41;;;;;;;7.33;3.08;;;;;;;22.98;75.94;94406.23;1655408;83;21038;-58
2022/08/23 08:07:09;;;;;;;4.87;3.02;;;;;;;23.12;75.74;94401.42;1678512;84;21127;-58
2022/08/23 08:09:37;;;;;;;8.25;3.10;;;;;;;23.24;75.50;94397.14;1669250;83;21170;-55
2022/08/23 08:12:05;;;;;;;8.75;3.30;;;;;;;23.33;74.22;94404.50;1658770;84;21082;-50
2022/08/23 08:14:33;;;;;;;10.40;3.60;;;;;;;23.41;73.98;94400.40;1669165;83;21046;-55
2022/08/23 08:17:01;;;;;;;5.62;3.22;;;;;;;23.49;74.74;94387.98;1645347;83;21133;-52
2022/08/23 08:19:33;;;;;;;9.48;3.65;;;;;;;23.61;74.03;94394.88;1638372;83;21092;-52
2022/08/23 08:22:08;;;;;;;10.72;3.62;;;;;;;23.65;73.36;94403.00;1676325;83;21044;-53
2022/08/23 08:24:53;;;;;;;6.92;3.50;;;;;;;23.62;73.24;94399.23;1622217;85;21586;-54
2022/08/23 08:27:21;;;;;;;5.35;2.90;;;;;;;23.60;73.04;94397.59;1644693;85;21418;-51
2022/08/23 08:29:49;;;;;;;6.10;2.65;;;;;;;23.64;72.50;94393.83;1647676;84;21127;-52
2022/08/23 08:32:17;;;;;;;4.60;2.62;;;;;;;23.72;71.15;94390.46;1649485;84;21664;-51
2022/08/23 08:34:45;;;;;;;5.33;2.80;;;;;;;23.82;71.36;94399.21;1644717;85;21654;-55
2022/08/23 08:37:12;;;;;;;7.67;3.45;;;;;;;23.90;70.59;94395.23;1664778;84;21263;-53
2022/08/23 08:39:44;;;;;;;7.17;2.70;;;;;;;23.97;70.77;94389.61;1643280;84;21581;-53
2022/08/23 08:42:47;;;;;;;8.03;3.20;;;;;;;24.09;71.41;94394.45;1671716;84;21069;-52
2022/08/23 08:45:19;;;;;;;4.70;3.12;;;;;;;24.21;70.78;94395.73;1657039;83;21350;-53
2022/08/23 08:48:04;;;;;;;8.63;3.13;;;;;;;24.27;69.96;94396.36;1653865;84;21061;-53
2022/08/23 08:50:53;;;;;;;3.65;2.35;;;;;;;24.30;70.19;94400.25;1658107;84;21109;-52
2022/08/23 08:53:37;;;;;;;8.15;3.10;;;;;;;24.39;69.25;94391.34;1666904;83;21523;-57
2022/08/23 08:56:22;;;;;;;;;;;;;;;24.48;67.76;94404.19;1668701;84;21062;-55
2022/08/23 08:59:02;;;;;;;7.55;3.65;;;;;;;24.51;66.84;94400.28;1661218;83;20893;-51
2022/08/23 09:01:34;;;;;;;4.20;2.77;;;;;;;24.46;67.91;94395.55;1673694;83;21040;-52
2022/08/23 09:04:03;;;;;;;5.17;2.47;;;;;;;24.51;67.42;94399.67;1671728;83;21009;-51
2022/08/23 09:06:45;;;;;;;7.15;2.83;;;;;;;24.58;66.29;94399.66;1668407;83;21141;-53
2022/08/23 09:09:18;;;;;;;5.60;2.42;;;;;;;24.66;66.77;94401.88;1657651;83;21048;-55
2022/08/23 09:12:10;;;;;;;5.95;2.50;;;;;;;24.73;66.75;94401.23;1620321;85;21443;-54
2022/08/23 09:15:14;;;;;;;10.05;2.75;;;;;;;24.77;66.00;94400.97;1670839;83;21043;-57
2022/08/23 09:17:53;;;;;;;4.10;2.22;;;;;;;24.83;66.72;94401.61;1655263;83;21042;-51
2022/08/23 09:20:23;;;;;;;10.13;2.83;;;;;;;24.94;66.54;94403.40;1649983;85;21270;-50
2022/08/23 09:22:57;;;;;;;8.95;3.62;;;;;;;25.00;65.30;94404.01;1657125;84;21077;-50
2022/08/23 09:25:28;;;;;;;5.53;2.27;;;;;;;25.07;64.84;94397.68;1600771;86;21144;-51
2022/08/23 09:27:57;;;;;;;4.60;2.70;;;;;;;25.15;65.60;94411.92;1663273;83;21667;-49
2022/08/23 09:30:45;;;;;;;4.85;2.60;;;;;;;25.21;65.51;94399.92;1654253;83;21023;-55
2022/08/23 09:33:17;;;;;;;5.85;2.30;;;;;;;25.31;65.29;94400.92;1629299;85;21028;-51
2022/08/23 09:35:53;;;;;;;5.78;2.70;;;;;;;25.45;64.74;94398.80;1626922;85;21051;-50
2022/08/23 09:38:23;;;;;;;6.97;2.98;;;;;;;25.53;65.37;94393.95;1661353;85;21194;-49
2022/08/23 09:40:52;;;;;;;5.65;2.80;;;;;;;25.59;65.32;94391.09;1648484;85;21137;-51
2022/08/23 09:43:24;;;;;;;9.83;2.62;;;;;;;25.63;64.20;94389.34;1651523;84;21516;-50
2022/08/23 09:45:57;;;;;;;10.08;2.45;;;;;;;25.77;64.87;94389.31;1626469;85;21596;-51
2022/08/23 09:48:39;;;;;;;8.13;2.75;;;;;;;26.02;65.45;94394.00;1637775;85;22229;-53
2022/08/23 09:51:24;;;;;;;11.83;3.13;;;;;;;26.31;64.40;94391.97;1648367;85;21272;-53
2022/08/23 09:54:16;;;;;;;7.37;3.02;;;;;;;26.55;63.92;94386.54;1649635;84;21046;-54
2022/08/23 09:56:50;;;;;;;6.58;2.12;;;;;;;26.78;63.07;94395.17;1654849;83;21020;-52
2022/08/23 09:59:56;;;;;;;6.70;2.95;;;;;;;27.02;62.27;94396.05;1605310;85;21013;-51
2022/08/23 10:02:32;;;;;;;9.40;5.40;;;;;;;27.25;61.05;94394.02;1626496;83;21006;-54
2022/08/23 10:05:09;;;;;;;7.17;3.08;;;;;;;27.62;60.15;94393.25;1653435;84;39328;-52
2022/08/23 10:07:41;;;;;;;8.55;2.67;;;;;;;27.91;58.99;94387.49;1664738;84;21102;-51
2022/08/23 10:10:45;;;;;;;9.05;2.90;;;;;;;28.22;58.15;94387.52;1638953;85;21543;-51
2022/08/23 10:13:14;;;;;;;11.73;3.35;;;;;;;28.19;57.35;94387.23;1613555;86;21026;-53
2022/08/23 10:16:08;;;;;;;10.90;3.08;;;;;;;28.34;57.09;94387.19;1636926;85;21074;-52
2022/08/23 10:18:59;;;;;;;12.35;2.70;;;;;;;28.53;56.66;94383.24;1643728;84;21252;-50
2022/08/23 10:21:43;;;;;;;8.73;3.10;;;;;;;28.91;55.78;94388.09;1652790;85;21232;-53
2022/08/23 10:24:27;;;;;;;13.98;3.15;;;;;;;29.17;55.98;94388.95;1626801;83;21459;-55
2022/08/23 10:30:14;;;;;;;9.80;3.42;;;;;;;29.69;54.17;94390.63;1664685;84;21204;-53
2022/08/23 10:32:54;;;;;;;12.05;3.33;;;;;;;30.11;53.04;94385.78;1655136;84;21294;-54
2022/08/23 10:35:33;;;;;;;17.45;2.75;;;;;;;30.42;52.14;94378.42;1639250;84;21157;-53
2022/08/23 10:38:07;;;;;;;10.98;2.98;;;;;;;30.73;51.18;94386.69;1669839;84;21160;-53
2022/08/23 10:40:43;;;;;;;12.00;3.00;;;;;;;31.02;50.07;94386.17;1656925;84;21078;-58
2022/08/23 10:43:31;;;;;;;10.68;3.27;;;;;;;31.29;49.14;94384.10;1644530;85;21096;-54
2022/08/23 10:45:59;;;;;;;14.00;4.10;;;;;;;31.51;48.91;94385.83;1660393;84;21298;-54
2022/08/23 10:48:50;;;;;;;13.58;4.05;;;;;;;31.76;48.65;94380.69;1612278;86;21122;-54
2022/08/23 10:51:39;;;;;;;8.08;3.15;;;;;;;31.77;48.37;94387.14;1624705;86;20996;-53
2022/08/23 10:54:17;;;;;;;9.00;3.20;;;;;;;31.90;48.74;94381.77;1653273;85;21090;-51
2022/08/23 10:56:46;;;;;;;8.30;3.12;;;;;;;31.80;47.78;94385.26;1634046;85;21207;-52
2022/08/23 10:59:20;;;;;;;12.40;2.67;;;;;;;32.01;48.27;94386.90;1649535;84;22341;-53
2022/08/23 11:02:18;;;;;;;12.23;2.85;;;;;;;32.27;47.48;94381.77;1633276;85;21070;-51
2022/08/23 11:05:06;;;;;;;13.60;3.17;;;;;;;32.24;47.39;94380.86;1659952;84;21357;-53
2022/08/23 11:07:41;;;;;;;8.30;2.70;;;;;;;32.39;46.97;94389.81;1643585;85;21142;-51
2022/08/23 11:10:33;;;;;;;12.18;2.52;;;;;;;32.64;46.75;94381.69;1606976;85;21088;-50
2022/08/23 11:13:05;;;;;;;7.92;2.60;;;;;;;32.77;45.24;94379.84;1649442;84;21306;-53
2022/08/23 11:16:03;;;;;;;15.70;2.77;;;;;;;32.86;45.74;94381.91;1667024;85;21046;-50
2022/08/23 11:18:43;;;;;;;9.28;2.98;;;;;;;33.11;45.23;94385.17;1673838;83;21042;-52
2022/08/23 11:21:30;;;;;;;7.60;2.42;;;;;;;33.26;44.42;94377.05;1646638;85;21032;-52
2022/08/23 11:24:06;;;;;;;7.92;2.45;;;;;;;33.26;44.06;94374.19;1665338;84;20997;-51
2022/08/23 11:26:47;;;;;;;9.98;3.02;;;;;;;32.94;44.51;94376.81;1683055;83;21562;-53
2022/08/23 11:29:26;;;;;;;8.80;2.85;;;;;;;32.94;44.48;94378.23;1654644;83;21028;-51
2022/08/23 11:32:18;;;;;;;11.28;3.08;;;;;;;33.19;45.79;94373.70;1670585;83;21121;-53
2022/08/23 11:35:24;;;;;;;8.45;2.70;;;;;;;33.25;43.98;94371.93;1674762;84;21070;-55
2022/08/23 11:37:59;;;;;;;10.25;2.98;;;;;;;32.93;43.77;94366.77;1645365;84;21074;-51
2022/08/23 11:40:55;;;;;;;10.10;2.77;;;;;;;32.56;44.88;94362.59;1677687;83;21278;-60
2022/08/23 11:43:32;;;;;;;9.25;3.33;;;;;;;32.58;44.85;94364.89;1656301;84;21173;-50
2022/08/23 11:46:33;;;;;;;16.75;3.90;;;;;;;32.41;45.18;94367.17;1648389;83;21077;-48
2022/08/23 11:49:25;;;;;;;13.85;3.33;;;;;;;32.59;45.69;94359.95;1652518;84;21178;-49
2022/08/23 11:52:49;;;;;;;8.93;2.75;;;;;;;32.52;45.04;94361.61;1658630;84;21204;-51
2022/08/23 11:55:31;;;;;;;13.08;2.85;;;;;;;32.72;45.68;94363.78;1680906;82;21164;-49
2022/08/23 11:58:16;;;;;;;10.18;2.95;;;;;;;33.41;45.09;94356.72;1653253;84;21712;-57
2022/08/23 12:01:07;;;;;;;13.48;3.15;;;;;;;33.98;43.48;94360.72;1680697;82;21061;-53
2022/08/23 12:03:54;;;;;;;14.28;3.22;;;;;;;34.47;43.06;94359.09;1674852;81;21032;-49
2022/08/23 12:06:33;;;;;;;10.78;3.05;;;;;;;34.49;41.63;94356.38;1667431;85;21062;-53
2022/08/23 12:09:09;;;;;;;14.00;3.50;;;;;;;33.87;41.91;94362.08;1660951;84;21230;-55
2022/08/23 12:11:59;;;;;;;16.85;3.40;;;;;;;33.06;43.08;94360.55;1661030;84;21186;-56